Time;durP1;ratioP1;P1;durP2;ratioP2;P2;SDS_P1;SDS_P2;PMS_P1;PMS_P2;Temp;Humidity;BMP_temperature;BMP_pressure;BME280_temperature;BME280_humidity;BME280_pressure;Samples;Min_cycle;Max_cycle;Signal;HPM_P1;HPM_P2
2023/06/03 00:01:20;;;;;;;0.20;0.10;;;;;;;8.63;49.97;102224.25;4982059;28;20050;-74
2023/06/03 00:03:48;;;;;;;0.20;0.00;;;;;;;8.60;50.04;102224.19;4981628;28;20054;-74
2023/06/03 00:06:17;;;;;;;0.20;0.10;;;;;;;8.55;50.19;102228.47;4987338;28;20098;-74
2023/06/03 00:08:44;;;;;;;0.50;0.10;;;;;;;8.50;50.12;102224.94;4987482;28;20074;-75
2023/06/03 00:11:11;;;;;;;0.17;0.08;;;;;;;8.46;50.34;102225.75;4987932;28;20124;-74
2023/06/03 00:13:38;;;;;;;0.85;0.10;;;;;;;8.40;50.46;102218.72;4982760;28;20578;-74
2023/06/03 00:16:06;;;;;;;0.30;0.10;;;;;;;8.35;50.54;102209.94;4987380;28;20053;-75
2023/06/03 00:18:33;;;;;;;0.60;0.25;;;;;;;8.29;50.57;102213.34;4982351;28;20049;-75
2023/06/03 00:21:01;;;;;;;2.05;0.10;;;;;;;8.27;50.95;102217.63;4987567;28;20510;-75
2023/06/03 00:23:31;;;;;;;0.30;0.10;;;;;;;8.24;50.90;102217.59;4983046;28;20101;-74
2023/06/03 00:25:58;;;;;;;1.80;0.20;;;;;;;8.19;50.77;102216.66;4986033;28;20042;-74
2023/06/03 00:28:25;;;;;;;1.38;0.20;;;;;;;8.15;50.97;102211.41;4984152;28;20130;-74
2023/06/03 00:30:52;;;;;;;0.13;0.10;;;;;;;8.11;51.03;102210.44;4982691;28;20082;-75
2023/06/03 00:33:19;;;;;;;0.40;0.10;;;;;;;8.04;51.27;102203.41;4983437;28;20120;-74
2023/06/03 00:35:46;;;;;;;1.00;0.15;;;;;;;8.01;51.24;102200.78;4983627;28;20054;-76
2023/06/03 00:38:13;;;;;;;0.30;0.20;;;;;;;7.96;51.40;102210.22;4987286;28;20049;-76
2023/06/03 00:40:41;;;;;;;1.20;0.10;;;;;;;7.93;51.67;102210.19;4979908;28;20046;-76
2023/06/03 00:43:09;;;;;;;1.95;0.20;;;;;;;7.89;51.68;102219.69;4986882;28;20184;-75
2023/06/03 00:45:36;;;;;;;0.93;0.20;;;;;;;7.83;51.65;102215.25;4984007;28;20146;-75
2023/06/03 00:48:03;;;;;;;0.50;0.10;;;;;;;7.82;51.71;102212.63;4981454;28;20043;-75
2023/06/03 00:50:30;;;;;;;1.95;0.20;;;;;;;7.76;52.07;102213.38;4984615;28;20053;-74
2023/06/03 00:52:58;;;;;;;2.67;0.10;;;;;;;7.74;52.34;102212.50;4981918;28;20497;-76
2023/06/03 00:55:25;;;;;;;1.23;0.20;;;;;;;7.69;52.43;102211.56;4987482;28;20410;-74
2023/06/03 00:57:54;;;;;;;3.30;0.20;;;;;;;7.67;52.48;102215.84;4987518;28;20055;-75
2023/06/03 01:00:21;;;;;;;0.57;0.17;;;;;;;7.61;52.67;102207.94;4987631;28;20414;-74
2023/06/03 01:02:48;;;;;;;1.13;0.20;;;;;;;7.59;52.65;102213.13;4986412;28;20052;-77
2023/06/03 01:05:16;;;;;;;0.45;0.10;;;;;;;7.55;52.85;102211.31;4986908;28;20046;-76
2023/06/03 01:07:51;;;;;;;0.75;0.20;;;;;;;7.53;53.03;102205.22;4988789;28;20125;-76
2023/06/03 01:10:24;;;;;;;0.68;0.17;;;;;;;7.50;53.15;102206.91;4988549;28;20053;-74
2023/06/03 01:13:04;;;;;;;0.73;0.10;;;;;;;7.50;53.35;102220.75;4986757;28;20060;-75
2023/06/03 01:15:33;;;;;;;1.70;0.20;;;;;;;7.48;53.55;102216.38;4989950;28;20053;-75
2023/06/03 01:18:04;;;;;;;0.63;0.10;;;;;;;7.45;53.61;102212.00;4988201;28;20534;-75
2023/06/03 01:20:31;;;;;;;0.52;0.10;;;;;;;7.45;53.71;102214.59;4987661;28;20046;-75
2023/06/03 01:23:11;;;;;;;0.38;0.28;;;;;;;7.40;53.77;102204.16;4985303;28;20058;-75
2023/06/03 01:25:40;;;;;;;1.48;0.20;;;;;;;7.42;53.81;102211.94;4986248;28;20062;-74
2023/06/03 01:28:07;;;;;;;1.58;0.20;;;;;;;7.42;53.83;102205.03;4985690;28;20458;-75
2023/06/03 01:30:35;;;;;;;0.68;0.57;;;;;;;7.38;54.09;102202.34;4986334;28;20042;-75
2023/06/03 01:33:03;;;;;;;0.40;0.10;;;;;;;7.41;54.32;102205.88;4980858;28;20423;-74
2023/06/03 01:35:32;;;;;;;0.55;0.10;;;;;;;7.41;54.58;102203.28;4989161;28;20050;-75
2023/06/03 01:37:59;;;;;;;0.40;0.17;;;;;;;7.42;54.53;102204.16;4985864;28;20042;-75
2023/06/03 01:40:27;;;;;;;0.65;0.10;;;;;;;7.43;54.70;102208.53;4986435;28;20049;-75
2023/06/03 01:42:54;;;;;;;0.85;0.10;;;;;;;7.42;54.97;102197.22;4986749;28;20578;-75
2023/06/03 01:45:22;;;;;;;0.20;0.10;;;;;;;7.43;55.03;102201.59;4986289;28;20052;-75
2023/06/03 01:47:49;;;;;;;5.63;0.20;;;;;;;7.43;55.06;102201.59;4985949;28;20056;-75
2023/06/03 01:50:18;;;;;;;2.28;0.20;;;;;;;7.44;55.26;102198.13;4983730;28;20050;-74
2023/06/03 01:52:45;;;;;;;0.77;0.17;;;;;;;7.43;55.29;102199.00;4984350;28;20448;-75
2023/06/03 01:55:12;;;;;;;0.30;0.17;;;;;;;7.44;55.42;102195.53;4988217;28;20050;-74
2023/06/03 01:57:40;;;;;;;2.65;0.10;;;;;;;7.46;55.61;102192.97;4984187;28;20046;-75
2023/06/03 02:00:09;;;;;;;4.03;0.30;;;;;;;7.46;55.64;102194.66;4986886;28;20046;-75
2023/06/03 02:02:36;;;;;;;1.45;0.10;;;;;;;7.46;55.52;102192.97;4982549;28;20046;-76
2023/06/03 02:05:03;;;;;;;0.30;0.10;;;;;;;7.47;55.52;102191.25;4986086;28;20687;-75
2023/06/03 02:07:31;;;;;;;0.35;0.15;;;;;;;7.48;55.74;102190.38;4985541;28;20054;-75
2023/06/03 02:09:58;;;;;;;0.90;0.32;;;;;;;7.47;55.61;102186.03;4985470;28;20062;-74
2023/06/03 02:12:25;;;;;;;2.40;0.10;;;;;;;7.48;55.89;102185.19;4986485;28;20059;-74
2023/06/03 02:14:56;;;;;;;1.67;0.10;;;;;;;7.48;55.97;102190.38;4964923;28;20057;-74
2023/06/03 02:17:24;;;;;;;1.55;0.60;;;;;;;7.47;56.02;102173.91;4982175;28;20136;-74
2023/06/03 02:19:51;;;;;;;2.70;0.40;;;;;;;7.48;56.11;102174.78;4983785;28;20086;-75
2023/06/03 02:22:18;;;;;;;2.50;0.10;;;;;;;7.46;56.23;102173.88;4985675;28;20042;-77
2023/06/03 02:24:46;;;;;;;0.82;0.20;;;;;;;7.47;56.61;102183.44;4985478;28;20105;-75
2023/06/03 02:27:14;;;;;;;0.85;0.30;;;;;;;7.46;56.46;102179.06;4977331;28;20112;-74
2023/06/03 02:29:42;;;;;;;0.40;0.20;;;;;;;7.48;56.60;102177.38;4983360;28;20554;-76
2023/06/03 02:32:11;;;;;;;1.25;0.10;;;;;;;7.47;56.40;102178.25;4982646;28;20049;-75
2023/06/03 02:34:37;;;;;;;3.22;0.30;;;;;;;7.49;56.84;102176.56;4984204;28;20054;-75
2023/06/03 02:37:05;;;;;;;0.50;0.10;;;;;;;7.49;56.92;102169.63;4987483;28;20052;-75
2023/06/03 02:39:32;;;;;;;1.55;0.20;;;;;;;7.50;57.35;102175.69;4982995;28;20068;-68
2023/06/03 02:41:59;;;;;;;1.58;0.30;;;;;;;7.51;57.23;102173.09;4983536;28;20054;-68
2023/06/03 02:44:25;;;;;;;1.13;0.13;;;;;;;7.52;57.41;102172.28;4984815;28;20057;-68
2023/06/03 02:46:52;;;;;;;0.73;0.10;;;;;;;7.54;57.42;102175.78;4984014;28;20413;-68
2023/06/03 02:49:21;;;;;;;0.35;0.10;;;;;;;7.55;57.39;102168.84;4986408;28;20049;-68
2023/06/03 02:51:48;;;;;;;0.82;0.10;;;;;;;7.56;57.75;102173.19;4985494;28;20640;-68
2023/06/03 02:54:15;;;;;;;0.45;0.10;;;;;;;7.59;58.12;102168.91;4982024;28;20046;-69
2023/06/03 02:56:41;;;;;;;1.00;0.10;;;;;;;7.61;58.23;102163.75;4987866;28;20057;-68
2023/06/03 02:59:08;;;;;;;3.40;0.10;;;;;;;7.63;58.41;102164.66;4985503;28;20054;-70
2023/06/03 03:01:37;;;;;;;0.20;0.10;;;;;;;7.65;58.54;102168.13;4986618;28;20052;-69
2023/06/03 03:04:04;;;;;;;0.17;0.10;;;;;;;7.68;58.55;102165.56;4985478;28;20133;-70
2023/06/03 03:06:36;;;;;;;1.90;0.20;;;;;;;7.72;58.34;102167.38;4985675;28;20054;-70
2023/06/03 03:09:04;;;;;;;1.65;0.22;;;;;;;7.75;58.47;102163.97;4985518;28;20149;-70
2023/06/03 03:11:31;;;;;;;0.68;0.10;;;;;;;7.77;58.84;102163.13;4984852;28;20427;-70
2023/06/03 03:13:58;;;;;;;1.95;0.10;;;;;;;7.78;58.93;102174.41;4981321;28;20060;-69
2023/06/03 03:16:26;;;;;;;2.10;0.30;;;;;;;7.80;59.18;102154.50;4983280;28;20052;-70
2023/06/03 03:18:53;;;;;;;0.60;0.20;;;;;;;7.85;59.20;102164.13;4978795;28;20815;-69
2023/06/03 03:21:20;;;;;;;2.72;0.20;;;;;;;7.86;58.99;102162.41;4983989;28;20046;-69
2023/06/03 03:23:48;;;;;;;0.55;0.10;;;;;;;7.88;59.41;102161.56;4986268;28;20057;-69
2023/06/03 03:26:15;;;;;;;0.90;0.17;;;;;;;7.92;59.34;102157.28;4982002;28;20042;-70
2023/06/03 03:28:42;;;;;;;3.30;0.90;;;;;;;7.94;59.33;102146.88;4988111;28;20073;-70
2023/06/03 03:31:11;;;;;;;0.63;0.10;;;;;;;7.98;59.36;102153.91;4988193;28;20060;-69
2023/06/03 03:33:38;;;;;;;1.08;0.20;;;;;;;8.03;59.66;102153.09;4986179;28;20058;-69
2023/06/03 03:36:11;;;;;;;0.50;0.20;;;;;;;8.06;59.86;102152.28;4987367;28;20400;-69
2023/06/03 03:38:38;;;;;;;0.85;0.20;;;;;;;8.11;59.85;102153.19;4986906;28;20077;-69
2023/06/03 03:41:06;;;;;;;1.77;0.10;;;;;;;8.15;59.96;102148.94;4987408;28;20054;-69
2023/06/03 03:43:34;;;;;;;0.47;0.10;;;;;;;8.18;60.28;102155.03;4989828;28;20042;-69
2023/06/03 03:46:01;;;;;;;4.28;1.45;;;;;;;8.23;60.38;102153.38;4986913;28;20057;-69
2023/06/03 03:48:30;;;;;;;2.88;0.10;;;;;;;8.28;60.41;102156.94;4988588;28;20052;-69
2023/06/03 03:50:57;;;;;;;2.00;0.35;;;;;;;8.33;60.91;102149.16;4983930;28;20097;-68
2023/06/03 03:53:28;;;;;;;1.17;0.10;;;;;;;8.40;61.14;102153.63;4987125;28;20061;-69
2023/06/03 03:55:56;;;;;;;0.82;0.20;;;;;;;8.42;60.82;102135.41;4982933;28;20084;-69
2023/06/03 03:58:30;;;;;;;1.73;0.20;;;;;;;8.53;60.95;102147.69;4990327;28;20042;-69
2023/06/03 04:00:59;;;;;;;1.65;0.10;;;;;;;8.60;60.80;102143.47;4984390;28;20072;-69
2023/06/03 04:03:27;;;;;;;2.90;0.10;;;;;;;8.66;60.47;102153.94;4988365;28;20043;-70
2023/06/03 04:05:54;;;;;;;0.98;0.30;;;;;;;8.70;61.07;102128.78;4984239;28;20046;-70
2023/06/03 04:08:38;;;;;;;0.52;0.10;;;;;;;8.84;60.58;102144.59;4987160;28;20084;-69
2023/06/03 04:11:05;;;;;;;2.15;0.45;;;;;;;8.92;60.93;102153.34;4984180;28;20485;-69
2023/06/03 04:13:38;;;;;;;0.98;0.20;;;;;;;8.65;60.86;102094.91;4988300;28;20054;-69
2023/06/03 04:16:10;;;;;;;0.77;0.10;;;;;;;9.09;61.02;102146.56;4983398;28;20476;-69
2023/06/03 04:18:43;;;;;;;1.38;0.20;;;;;;;9.17;60.39;102146.66;4989478;28;20058;-70
2023/06/03 04:21:19;;;;;;;0.35;0.13;;;;;;;9.24;60.83;102146.72;4986423;28;20057;-70
2023/06/03 04:23:46;;;;;;;2.50;0.20;;;;;;;9.34;60.44;102139.00;4985981;28;20495;-69
2023/06/03 04:26:16;;;;;;;1.10;0.20;;;;;;;9.43;60.33;102136.44;4984815;28;20051;-69
2023/06/03 04:28:44;;;;;;;1.40;0.20;;;;;;;9.51;60.11;102141.75;4990766;28;20621;-69
2023/06/03 04:31:11;;;;;;;1.77;0.17;;;;;;;9.59;60.60;102137.41;4981050;28;20057;-70
2023/06/03 04:33:38;;;;;;;1.92;0.30;;;;;;;9.67;60.27;102135.75;4986175;28;20054;-70
2023/06/03 04:36:05;;;;;;;0.45;0.20;;;;;;;9.80;60.29;102137.59;4985873;28;20057;-70
2023/06/03 04:38:33;;;;;;;0.30;0.03;;;;;;;9.89;60.41;102123.72;4984965;28;20068;-70
2023/06/03 04:41:01;;;;;;;6.88;0.20;;;;;;;10.06;60.00;102127.28;4983636;28;20047;-69
2023/06/03 04:43:29;;;;;;;1.27;0.20;;;;;;;10.21;59.62;102130.84;4988089;28;20049;-70
2023/06/03 04:45:57;;;;;;;0.82;0.10;;;;;;;10.36;59.85;102128.34;4985088;28;20097;-70
2023/06/03 04:48:25;;;;;;;0.63;0.20;;;;;;;10.52;59.45;102127.53;4986847;28;20057;-69
2023/06/03 04:50:52;;;;;;;1.42;0.30;;;;;;;10.69;59.55;102127.56;4984126;28;20053;-70
2023/06/03 04:53:19;;;;;;;1.75;0.20;;;;;;;10.86;58.79;102131.97;4987885;28;20518;-70
2023/06/03 04:55:46;;;;;;;0.28;0.17;;;;;;;11.01;58.26;102122.44;4981883;28;20054;-72
2023/06/03 04:58:13;;;;;;;1.05;0.10;;;;;;;11.17;58.75;102123.31;4987313;28;20459;-70
2023/06/03 05:00:41;;;;;;;0.95;0.25;;;;;;;11.34;58.33;102122.44;4984475;28;20479;-72
2023/06/03 05:03:11;;;;;;;0.47;0.10;;;;;;;11.51;58.11;102117.22;4989430;28;20047;-70
2023/06/03 05:05:43;;;;;;;3.53;0.10;;;;;;;11.67;57.63;102114.56;4979898;28;20051;-70
2023/06/03 05:08:10;;;;;;;3.63;0.10;;;;;;;11.82;57.36;102116.28;4988314;28;20147;-70
2023/06/03 05:10:38;;;;;;;3.38;0.65;;;;;;;11.99;57.06;102118.03;4987058;28;20048;-70
2023/06/03 05:13:05;;;;;;;1.95;0.20;;;;;;;12.12;56.59;102120.63;4983423;28;20039;-70
2023/06/03 05:15:33;;;;;;;2.05;0.20;;;;;;;12.27;56.15;102110.94;4989070;28;20520;-71
2023/06/03 05:18:01;;;;;;;0.68;0.10;;;;;;;12.46;56.06;102111.72;4986457;28;20105;-70
2023/06/03 05:20:31;;;;;;;0.55;0.10;;;;;;;12.62;55.38;102110.78;4986514;28;20502;-70
2023/06/03 05:22:58;;;;;;;1.15;0.13;;;;;;;12.76;54.87;102114.19;4986844;28;20116;-70
2023/06/03 05:25:25;;;;;;;1.05;0.10;;;;;;;12.93;54.55;102113.22;4985799;28;20049;-70
2023/06/03 05:27:52;;;;;;;0.40;0.10;;;;;;;13.07;54.35;102108.72;4984504;28;20054;-70
2023/06/03 05:30:19;;;;;;;0.20;0.20;;;;;;;13.24;53.66;102109.47;4987549;28;20053;-70
2023/06/03 05:32:46;;;;;;;0.88;0.10;;;;;;;13.40;53.00;102102.34;4985367;28;20418;-70
2023/06/03 05:35:13;;;;;;;1.00;0.10;;;;;;;13.57;52.51;102101.31;4986210;28;20045;-71
2023/06/03 05:37:41;;;;;;;0.17;0.10;;;;;;;13.72;51.62;102099.44;4984519;28;20050;-70
2023/06/03 05:40:09;;;;;;;0.32;0.17;;;;;;;13.85;51.07;102096.66;4989709;28;20057;-70
2023/06/03 05:42:36;;;;;;;0.95;0.10;;;;;;;13.97;50.52;102098.28;4982774;28;20062;-70
2023/06/03 05:45:04;;;;;;;0.47;0.10;;;;;;;14.10;49.08;102097.25;4988538;28;20058;-71
2023/06/03 05:47:31;;;;;;;0.65;0.10;;;;;;;14.22;49.11;102088.34;4982892;28;20057;-70
2023/06/03 05:49:58;;;;;;;0.50;0.20;;;;;;;14.33;48.94;102089.09;4985236;28;20060;-70
2023/06/03 05:52:26;;;;;;;0.93;0.20;;;;;;;14.45;48.02;102083.66;4985294;28;20125;-70
2023/06/03 05:54:54;;;;;;;1.33;0.10;;;;;;;14.56;48.22;102079.16;4984032;28;20042;-70
2023/06/03 05:57:21;;;;;;;5.10;0.20;;;;;;;14.64;47.81;102084.31;4984157;28;20050;-70
2023/06/03 05:59:50;;;;;;;1.75;0.10;;;;;;;14.74;47.44;102085.94;4984344;28;20429;-70
2023/06/03 06:02:18;;;;;;;0.73;0.13;;;;;;;14.81;47.66;102074.41;4986834;28;20039;-70
2023/06/03 06:04:45;;;;;;;0.50;0.25;;;;;;;14.88;46.87;102083.06;4987480;28;20057;-70
2023/06/03 06:07:12;;;;;;;0.30;0.10;;;;;;;14.95;46.66;102075.97;4983908;28;20060;-71
2023/06/03 06:09:39;;;;;;;1.23;0.15;;;;;;;15.02;46.83;102078.44;4983320;28;20047;-70
2023/06/03 06:12:08;;;;;;;0.22;0.20;;;;;;;15.06;47.14;102069.63;4987112;28;20154;-70
2023/06/03 06:14:35;;;;;;;0.40;0.10;;;;;;;15.14;46.36;102071.25;4983325;28;20050;-71
2023/06/03 06:17:02;;;;;;;3.17;0.28;;;;;;;15.18;46.51;102071.19;4985105;28;20050;-70
2023/06/03 06:19:30;;;;;;;0.20;0.10;;;;;;;15.24;46.01;102065.81;4983851;28;20125;-70
2023/06/03 06:21:57;;;;;;;2.08;0.20;;;;;;;15.29;45.66;102068.38;4985917;28;20046;-70
2023/06/03 06:24:24;;;;;;;0.10;0.10;;;;;;;15.30;44.33;102064.84;4981625;28;20390;-70
2023/06/03 06:26:52;;;;;;;0.50;0.00;;;;;;;15.31;43.66;102063.94;4984668;28;20050;-70
2023/06/03 06:29:20;;;;;;;0.03;0.03;;;;;;;15.36;43.37;102063.84;4978467;28;20129;-70
2023/06/03 06:31:48;;;;;;;0.10;0.00;;;;;;;15.39;42.98;102063.81;4982924;28;20056;-70
2023/06/03 06:34:18;;;;;;;0.22;0.10;;;;;;;15.41;42.71;102065.50;4981968;28;20053;-70
2023/06/03 06:36:49;;;;;;;0.22;0.00;;;;;;;15.43;42.17;102062.88;4985607;28;20399;-70
2023/06/03 06:39:47;;;;;;;2.67;0.10;;;;;;;15.43;42.30;102061.09;4981378;28;20050;-71
2023/06/03 06:42:18;;;;;;;0.20;0.00;;;;;;;15.42;41.98;102059.34;4984949;28;20046;-70
2023/06/03 06:44:48;;;;;;;0.20;0.05;;;;;;;15.47;41.75;102061.91;4986597;28;20054;-70
2023/06/03 06:47:21;;;;;;;0.10;0.10;;;;;;;15.48;41.03;102053.09;4983030;28;20042;-70
2023/06/03 06:49:48;;;;;;;0.80;0.05;;;;;;;15.51;40.98;102053.94;4986153;28;20054;-70
2023/06/03 06:52:15;;;;;;;0.75;0.13;;;;;;;15.56;41.01;102052.97;4983534;28;20053;-70
2023/06/03 06:54:43;;;;;;;2.03;0.10;;;;;;;15.59;41.15;102052.91;4982660;28;20049;-70
2023/06/03 06:57:10;;;;;;;0.30;0.00;;;;;;;15.65;41.07;102047.50;4982720;28;20044;-70
2023/06/03 06:59:37;;;;;;;1.48;0.10;;;;;;;15.69;40.99;102044.84;4984704;28;20052;-70
2023/06/03 07:02:05;;;;;;;0.32;0.00;;;;;;;15.74;40.77;102034.22;4985288;28;20501;-69
2023/06/03 07:04:32;;;;;;;0.20;0.10;;;;;;;15.81;40.56;102041.09;4988880;28;20522;-70
2023/06/03 07:06:59;;;;;;;0.63;0.10;;;;;;;15.88;40.28;102040.06;4988035;28;20054;-70
2023/06/03 07:09:26;;;;;;;0.52;0.10;;;;;;;15.95;40.57;102039.03;4988729;28;20442;-70
2023/06/03 07:11:53;;;;;;;0.38;0.10;;;;;;;16.04;40.58;102045.00;4988011;28;20391;-70
2023/06/03 07:14:20;;;;;;;0.40;0.10;;;;;;;16.12;40.67;102037.81;4988217;28;20140;-69
2023/06/03 07:16:48;;;;;;;0.38;0.10;;;;;;;16.19;40.26;102034.13;4986479;28;20054;-70
2023/06/03 07:19:16;;;;;;;0.10;0.10;;;;;;;16.30;40.16;102029.50;4986036;28;20125;-70
2023/06/03 07:21:43;;;;;;;0.20;0.08;;;;;;;16.39;39.89;102029.31;4985047;28;20918;-70
2023/06/03 07:24:12;;;;;;;2.90;0.10;;;;;;;16.50;39.99;102028.19;4989634;28;20134;-69
2023/06/03 07:26:40;;;;;;;0.13;0.03;;;;;;;16.61;39.65;102021.75;4987827;28;20046;-70
2023/06/03 07:29:07;;;;;;;0.85;0.10;;;;;;;16.72;39.45;102020.63;4986978;28;20541;-70
2023/06/03 07:31:37;;;;;;;0.73;0.00;;;;;;;16.80;39.37;102011.66;4987493;28;20719;-70
2023/06/03 07:34:04;;;;;;;0.47;0.08;;;;;;;16.93;39.40;102024.53;4988500;28;20056;-70
2023/06/03 07:36:34;;;;;;;0.63;0.10;;;;;;;17.01;39.32;102012.03;4986536;28;20111;-70
2023/06/03 07:39:04;;;;;;;0.93;0.10;;;;;;;17.13;39.50;102016.09;4984496;28;20050;-70
2023/06/03 07:41:41;;;;;;;0.60;0.10;;;;;;;17.22;39.14;102011.47;4988660;28;20050;-69
2023/06/03 07:44:10;;;;;;;0.20;0.10;;;;;;;17.31;38.48;102016.50;4985392;28;20046;-69
2023/06/03 07:46:45;;;;;;;0.10;0.10;;;;;;;17.42;38.62;102010.06;4988800;28;20143;-69
2023/06/03 07:49:14;;;;;;;1.15;0.10;;;;;;;17.49;38.57;102001.91;4987384;28;20050;-69
2023/06/03 07:51:44;;;;;;;1.30;0.08;;;;;;;17.59;38.23;101999.91;4990122;28;20057;-69
2023/06/03 07:54:12;;;;;;;0.40;0.10;;;;;;;17.69;38.03;102001.34;4988644;28;20058;-70
2023/06/03 07:56:40;;;;;;;0.03;0.00;;;;;;;17.78;38.02;102005.53;4983839;28;20056;-70
2023/06/03 07:59:10;;;;;;;0.60;0.10;;;;;;;17.87;37.35;102000.00;4989355;28;20096;-70
2023/06/03 08:01:37;;;;;;;1.38;0.55;;;;;;;17.94;37.61;102001.53;4987451;28;20427;-70
2023/06/03 08:04:06;;;;;;;0.40;0.10;;;;;;;18.02;37.61;101998.69;4989913;28;20581;-69
2023/06/03 08:06:36;;;;;;;1.17;0.10;;;;;;;18.09;37.51;101994.94;4989901;28;20424;-69
2023/06/03 08:09:05;;;;;;;0.10;0.10;;;;;;;18.15;37.48;101991.22;4989853;28;20530;-69
2023/06/03 08:11:36;;;;;;;1.08;0.10;;;;;;;18.20;37.15;101984.88;4986100;28;20077;-69
2023/06/03 08:14:03;;;;;;;2.75;0.10;;;;;;;18.28;36.81;101989.09;4988354;28;20055;-68
2023/06/03 08:16:35;;;;;;;0.65;0.00;;;;;;;18.34;36.79;101991.53;4986548;28;20047;-69
2023/06/03 08:19:03;;;;;;;0.45;0.10;;;;;;;18.39;37.13;101990.47;4987681;28;20043;-69
2023/06/03 08:21:33;;;;;;;0.75;0.75;;;;;;;18.45;37.04;101984.13;4988239;28;20050;-69
2023/06/03 08:24:00;;;;;;;0.50;0.10;;;;;;;18.51;36.90;101993.66;4985961;28;20673;-70
2023/06/03 08:26:29;;;;;;;0.30;0.13;;;;;;;18.56;37.05;101984.66;4983130;28;20082;-70
2023/06/03 08:28:55;;;;;;;2.35;0.10;;;;;;;18.62;35.97;101984.44;4989390;28;20148;-70
2023/06/03 08:31:23;;;;;;;2.15;0.00;;;;;;;18.69;36.16;101984.22;4990914;28;20054;-70
2023/06/03 08:33:50;;;;;;;0.70;0.35;;;;;;;18.75;35.92;101981.41;4989031;28;20060;-69
2023/06/03 08:36:19;;;;;;;8.48;0.17;;;;;;;18.79;36.41;101981.25;4984765;28;20064;-69
2023/06/03 08:38:46;;;;;;;0.15;0.10;;;;;;;18.86;36.36;101987.22;4984517;28;20046;-70
2023/06/03 08:41:13;;;;;;;2.45;0.13;;;;;;;18.90;36.15;101983.56;4985558;28;20049;-69
2023/06/03 08:43:51;;;;;;;0.47;0.10;;;;;;;18.97;35.41;101982.41;4983060;28;20053;-69
2023/06/03 08:46:24;;;;;;;0.30;0.10;;;;;;;19.02;35.36;101979.63;4987311;28;20106;-70
2023/06/03 08:49:03;;;;;;;0.10;0.00;;;;;;;19.05;34.55;101977.72;4986764;28;20575;-69
2023/06/03 08:51:37;;;;;;;0.28;0.10;;;;;;;19.09;34.78;101979.34;4984315;28;20057;-69
2023/06/03 08:54:11;;;;;;;0.73;0.03;;;;;;;19.13;34.23;101972.16;4986697;28;20054;-70
2023/06/03 08:56:42;;;;;;;0.73;0.10;;;;;;;19.19;33.63;101973.72;4984812;28;20133;-69
2023/06/03 08:59:16;;;;;;;0.20;0.10;;;;;;;19.21;33.81;101972.75;4985089;28;20562;-69
2023/06/03 09:01:46;;;;;;;2.83;0.10;;;;;;;19.22;34.18;101974.47;4983942;28;20065;-68
2023/06/03 09:04:14;;;;;;;0.50;0.10;;;;;;;19.27;34.26;101979.63;4984218;28;20446;-69
2023/06/03 09:06:44;;;;;;;1.42;0.10;;;;;;;19.29;33.64;101972.47;4989519;28;20051;-69
2023/06/03 09:09:14;;;;;;;0.30;0.10;;;;;;;19.30;33.21;101972.44;4985180;28;20068;-69
2023/06/03 09:11:44;;;;;;;0.63;0.10;;;;;;;19.32;33.31;101969.72;4986249;28;20621;-69
2023/06/03 09:14:15;;;;;;;1.83;0.10;;;;;;;19.35;34.14;101971.38;4988385;28;20058;-70
2023/06/03 09:16:43;;;;;;;0.65;0.10;;;;;;;19.37;34.02;101962.47;4973600;28;20050;-66
2023/06/03 09:19:11;;;;;;;2.35;0.10;;;;;;;19.40;34.02;101961.50;4977104;28;20057;-68
2023/06/03 09:21:42;;;;;;;0.98;0.10;;;;;;;19.46;33.79;101967.41;4984337;28;20466;-69
2023/06/03 09:24:10;;;;;;;0.47;0.10;;;;;;;19.50;32.73;101961.09;4982059;28;20042;-69
2023/06/03 09:26:37;;;;;;;1.63;0.10;;;;;;;19.52;33.23;101961.91;4984150;28;20557;-69
2023/06/03 09:29:06;;;;;;;0.10;0.10;;;;;;;19.56;33.08;101960.00;4987191;28;20125;-69
2023/06/03 09:31:35;;;;;;;1.20;0.10;;;;;;;19.60;32.73;101958.97;4980646;28;20124;-69
2023/06/03 09:34:02;;;;;;;0.65;0.10;;;;;;;19.60;33.48;101952.81;4986488;28;20109;-68
2023/06/03 09:36:30;;;;;;;0.55;0.10;;;;;;;19.64;33.16;101959.75;4988286;28;20046;-68
2023/06/03 09:38:57;;;;;;;5.78;0.20;;;;;;;19.66;33.01;101953.47;4984238;28;20139;-69
2023/06/03 09:41:26;;;;;;;0.32;0.10;;;;;;;19.68;31.98;101956.06;4986811;28;20051;-69
2023/06/03 09:43:57;;;;;;;0.50;0.05;;;;;;;19.68;33.00;101943.66;4987281;28;20050;-69
2023/06/03 09:46:25;;;;;;;0.50;0.10;;;;;;;19.64;33.88;101938.53;4987294;28;20064;-70
2023/06/03 09:48:55;;;;;;;2.05;0.10;;;;;;;19.72;33.27;101950.59;4987221;28;20581;-71
2023/06/03 09:51:41;;;;;;;1.15;0.20;;;;;;;19.76;33.16;101946.91;4986345;28;20046;-70
2023/06/03 09:54:12;;;;;;;2.50;0.32;;;;;;;19.78;33.66;101944.19;4986243;28;20549;-70
2023/06/03 09:56:39;;;;;;;0.13;0.10;;;;;;;19.83;33.67;101944.88;4988990;28;20054;-70
2023/06/03 09:59:17;;;;;;;0.63;0.30;;;;;;;19.87;32.91;101948.28;4985236;28;20050;-70
2023/06/03 10:01:51;;;;;;;0.20;0.20;;;;;;;19.87;32.32;101943.84;4987563;28;20442;-69
2023/06/03 10:04:23;;;;;;;4.67;0.10;;;;;;;19.89;32.05;101946.41;4985147;28;20046;-70
2023/06/03 10:07:08;;;;;;;0.30;0.10;;;;;;;19.93;31.76;101938.28;4988738;28;20411;-70
2023/06/03 10:09:36;;;;;;;0.10;0.10;;;;;;;19.92;30.61;101941.88;4986695;28;20509;-69
2023/06/03 10:12:03;;;;;;;1.33;0.15;;;;;;;19.92;30.57;101946.28;4982703;28;21130;-70
2023/06/03 10:14:30;;;;;;;0.63;0.20;;;;;;;19.91;30.80;101947.22;4989367;28;20042;-69
2023/06/03 10:17:05;;;;;;;4.03;0.10;;;;;;;19.88;30.37;101931.44;4983612;28;20048;-69
2023/06/03 10:19:34;;;;;;;;;;;;;;;19.90;31.24;101943.72;4981470;28;20049;-68
2023/06/03 10:22:02;;;;;;;3.45;0.10;;;;;;;19.91;31.38;101942.78;4982761;28;19933;-68
2023/06/03 10:24:30;;;;;;;0.20;0.10;;;;;;;19.92;30.37;101931.28;4981456;28;20129;-68
2023/06/03 10:26:57;;;;;;;0.43;0.13;;;;;;;19.82;30.71;101924.59;4982008;28;20856;-69
2023/06/03 10:29:24;;;;;;;0.10;0.10;;;;;;;19.92;31.23;101930.38;4980440;28;20050;-69
2023/06/03 10:31:58;;;;;;;0.30;0.10;;;;;;;19.93;30.99;101927.69;4978249;28;20141;-69
2023/06/03 10:34:25;;;;;;;0.17;0.10;;;;;;;19.95;30.72;101933.81;4979565;28;20050;-68
2023/06/03 10:36:57;;;;;;;0.22;0.10;;;;;;;19.97;30.38;101931.06;4987936;28;20051;-69
2023/06/03 10:39:25;;;;;;;0.38;0.20;;;;;;;19.97;30.51;101931.94;4980256;28;20047;-69
2023/06/03 10:41:55;;;;;;;2.90;0.88;;;;;;;19.98;30.67;101933.69;4985342;28;20057;-68
2023/06/03 10:44:22;;;;;;;1.70;0.20;;;;;;;19.97;30.46;101925.78;4982171;28;20807;-69
2023/06/03 10:46:58;;;;;;;1.50;0.20;;;;;;;19.96;30.43;101922.25;4984657;28;20042;-69
2023/06/03 10:49:30;;;;;;;1.65;0.10;;;;;;;19.97;30.70;101925.78;4983149;28;21008;-68
2023/06/03 10:52:29;;;;;;;0.77;0.20;;;;;;;19.97;31.06;101923.97;4982322;28;20042;-68
2023/06/03 10:55:08;;;;;;;1.50;0.43;;;;;;;19.96;31.47;101922.25;4968655;28;20057;-68
2023/06/03 10:57:41;;;;;;;2.92;0.40;;;;;;;19.94;31.38;101920.59;4984286;28;20053;-69
2023/06/03 11:00:10;;;;;;;1.02;0.10;;;;;;;19.92;30.87;101903.88;4986415;28;20053;-69
2023/06/03 11:03:05;;;;;;;2.50;0.20;;;;;;;19.93;30.97;101909.13;4985300;28;20059;-69
2023/06/03 11:05:32;;;;;;;0.43;0.10;;;;;;;19.89;31.08;101910.16;4979732;28;20054;-68
2023/06/03 11:08:00;;;;;;;2.42;0.10;;;;;;;19.87;31.64;101898.75;4983217;28;20061;-68
2023/06/03 11:10:41;;;;;;;0.73;0.13;;;;;;;19.90;31.62;101903.94;4979970;28;20042;-68
2023/06/03 11:13:10;;;;;;;0.57;0.10;;;;;;;19.90;32.02;101906.59;4975784;28;20129;-69
2023/06/03 11:16:00;;;;;;;1.05;0.13;;;;;;;19.92;32.17;101909.16;4981108;28;20090;-69
2023/06/03 11:18:28;;;;;;;0.77;0.60;;;;;;;19.90;32.16;101909.25;4981007;28;20054;-69
2023/06/03 11:20:55;;;;;;;2.53;0.20;;;;;;;19.89;32.14;101907.50;4982833;28;20516;-68
2023/06/03 11:23:46;;;;;;;1.23;0.20;;;;;;;19.89;32.35;101902.19;4984061;28;20078;-68
2023/06/03 11:26:33;;;;;;;0.85;0.20;;;;;;;19.88;32.55;101900.47;4982140;28;20930;-69
2023/06/03 11:29:00;;;;;;;0.10;0.10;;;;;;;19.85;32.26;101897.94;4984317;28;20053;-67
2023/06/03 11:31:28;;;;;;;6.55;0.30;;;;;;;19.85;32.23;101897.09;4979138;28;20060;-67
2023/06/03 11:34:26;;;;;;;0.10;0.10;;;;;;;19.84;32.27;101893.59;4982699;28;20046;-68
2023/06/03 11:36:54;;;;;;;0.68;0.10;;;;;;;19.82;32.94;101890.13;4984363;28;20050;-68
2023/06/03 11:39:23;;;;;;;0.20;0.10;;;;;;;19.80;32.40;101891.09;4984652;28;20046;-68